createdAt,value
2022-12-16T01:06:12.031Z,99619.31
2022-12-16T01:11:15.385Z,99609.69
2022-12-16T01:16:18.357Z,99612.81
2022-12-16T01:21:22.389Z,99622.81
2022-12-16T01:26:25.133Z,99635.69
2022-12-16T01:31:28.062Z,99639.91
2022-12-16T01:36:32.175Z,99640.78
2022-12-16T01:41:34.903Z,99648.94
2022-12-16T01:46:38.535Z,99650.81
2022-12-16T01:51:50.494Z,99643.41
2022-12-16T01:56:58.890Z,99654.41
2022-12-16T02:02:02.408Z,99657.16
2022-12-16T02:07:06.644Z,99655.94
2022-12-16T02:12:17.637Z,99658.22
2022-12-16T02:17:25.014Z,99652.66
2022-12-16T02:22:39.138Z,99653.53
2022-12-16T02:27:56.900Z,99658.22
2022-12-16T02:33:12.141Z,99659.31
2022-12-16T02:38:20.714Z,99653.53
2022-12-16T02:43:48.616Z,99656.56
2022-12-16T02:48:53.638Z,99655.97
2022-12-16T02:53:56.703Z,99660.22
2022-12-16T02:59:09.888Z,99653.28
2022-12-16T03:04:17.456Z,99658.84
2022-12-16T03:09:22.918Z,99665.34
2022-12-16T03:14:28.791Z,99677.69
2022-12-16T03:19:32.927Z,99679.63
2022-12-16T03:24:36.281Z,99676.19
2022-12-16T03:29:44.501Z,99671.19
2022-12-16T03:34:53.562Z,99681.63
2022-12-16T03:39:59.224Z,99689.75
2022-12-16T03:45:01.945Z,99704.19
2022-12-16T03:50:06.755Z,99698.47
2022-12-16T03:55:09.968Z,99699.09
2022-12-16T04:00:14.001Z,99713.97
2022-12-16T04:05:18.416Z,99712.31
2022-12-16T04:10:41.534Z,99714.72
2022-12-16T04:16:01.973Z,99714.44
2022-12-16T04:21:23.790Z,99725.13
2022-12-16T04:26:26.486Z,99732.78
2022-12-16T04:31:29.239Z,99745.94
2022-12-16T04:36:50.711Z,99741.50
2022-12-16T04:42:11.455Z,99749.34
2022-12-16T04:47:31.761Z,99752.78
2022-12-16T04:52:53.159Z,99763.19
2022-12-16T04:58:15.023Z,99763.09
2022-12-16T05:03:35.638Z,99771.88
2022-12-16T05:08:57.384Z,99776.66
2022-12-16T05:14:17.468Z,99785.06
2022-12-16T05:19:34.099Z,99780.34
2022-12-16T05:24:55.689Z,99792.34
2022-12-16T05:30:26.908Z,99797.34
2022-12-16T05:35:50.497Z,99811.91
2022-12-16T05:41:12.194Z,99828.16
2022-12-16T05:46:32.518Z,99826.66
2022-12-16T05:51:52.804Z,99826.75
2022-12-16T05:57:14.355Z,99834.22
2022-12-16T06:02:34.861Z,99836.56
2022-12-16T06:07:55.283Z,99846.91
2022-12-16T06:13:16.959Z,99855.53
2022-12-16T06:18:45.386Z,99861.13
2022-12-16T06:24:05.813Z,99876.00
2022-12-16T06:29:43.124Z,99881.13
2022-12-16T06:35:03.567Z,99888.41
2022-12-16T06:40:30.490Z,99910.78
2022-12-16T06:45:52.014Z,99910.63
2022-12-16T06:51:12.258Z,99913.41
2022-12-16T06:56:32.664Z,99932.44
2022-12-16T07:01:54.311Z,99947.47
2022-12-16T07:07:14.636Z,99948.75
2022-12-16T07:12:31.250Z,99956.00
2022-12-16T07:17:52.658Z,99967.00
2022-12-16T07:23:19.306Z,99971.63
2022-12-16T07:28:40.150Z,99980.44
2022-12-16T07:34:01.604Z,99989.91
2022-12-16T07:39:21.761Z,99990.59
2022-12-16T07:44:41.749Z,99996.69
2022-12-16T07:50:03.192Z,100005.56
2022-12-16T07:55:23.774Z,100018.91
2022-12-16T08:00:44.139Z,100024.69
2022-12-16T08:06:05.628Z,100033.56
2022-12-16T08:11:25.660Z,100026.44
2022-12-16T08:16:46.209Z,100035.72
2022-12-16T08:22:07.637Z,100039.31
2022-12-16T08:27:27.945Z,100046.56
2022-12-16T08:32:49.095Z,100042.50
2022-12-16T08:38:14.118Z,100050.56
2022-12-16T08:43:35.317Z,100047.97
2022-12-16T08:49:10.136Z,100048.75
2022-12-16T08:54:31.810Z,100043.97
2022-12-16T08:59:52.153Z,100043.88
2022-12-16T09:05:12.397Z,100034.28
2022-12-16T09:10:39.696Z,100028.44
2022-12-16T09:16:00.715Z,100016.88
2022-12-16T09:21:21.019Z,100003.03
2022-12-16T09:26:42.557Z,100005.44
2022-12-16T09:32:02.809Z,100006.66
2022-12-16T09:37:23.029Z,100009.69
2022-12-16T09:42:49.352Z,99997.59
2022-12-16T09:48:13.721Z,99983.66
2022-12-16T09:53:36.827Z,99988.19
2022-12-16T09:59:02.408Z,99986.38
2022-12-16T10:04:23.093Z,99974.88
2022-12-16T10:09:48.086Z,99972.59
2022-12-16T10:15:16.605Z,99967.16
2022-12-16T10:20:46.697Z,99958.78
2022-12-16T10:26:10.457Z,99927.81
2022-12-16T10:31:34.392Z,99926.34
2022-12-16T10:36:56.363Z,99930.47
2022-12-16T10:42:19.255Z,99937.22
2022-12-16T10:47:37.431Z,99932.72
2022-12-16T10:53:03.660Z,99924.28
2022-12-16T10:58:34.186Z,99908.75
2022-12-16T11:03:58.740Z,99912.41
2022-12-16T11:09:33.416Z,99892.66
2022-12-16T11:15:27.159Z,99893.28
2022-12-16T11:20:37.735Z,99890.72
2022-12-16T11:25:57.899Z,99884.28
2022-12-16T11:31:22.409Z,99885.31
2022-12-16T11:36:44.481Z,99882.03
2022-12-16T11:42:06.967Z,99865.03
2022-12-16T11:47:35.825Z,99858.28
2022-12-16T11:52:57.892Z,99847.50
2022-12-16T11:58:23.690Z,99848.03
2022-12-16T12:03:45.091Z,99842.66
2022-12-16T12:09:10.920Z,99841.50
2022-12-16T12:14:32.399Z,99837.13
2022-12-16T12:20:00.099Z,99826.56
2022-12-16T12:25:26.389Z,99824.13
2022-12-16T12:30:48.569Z,99820.00
2022-12-16T12:36:15.549Z,99817.81
2022-12-16T12:41:38.331Z,99823.72
2022-12-16T12:47:02.430Z,99816.22
2022-12-16T12:52:29.865Z,99808.34
2022-12-16T12:57:51.771Z,99811.81
2022-12-16T13:03:19.730Z,99820.56
2022-12-16T13:08:51.856Z,99819.50
2022-12-16T13:14:22.268Z,99817.44
2022-12-16T13:20:02.104Z,99820.66
2022-12-16T13:25:49.900Z,99822.16
2022-12-16T13:31:25.171Z,99822.00
2022-12-16T13:36:52.717Z,99825.94
2022-12-16T13:42:18.443Z,99836.59
2022-12-16T13:47:52.159Z,99851.44
2022-12-16T13:53:14.612Z,99858.28
2022-12-16T13:58:48.451Z,99871.66
2022-12-16T14:04:11.443Z,99873.94
2022-12-16T14:09:42.246Z,99888.44
2022-12-16T14:15:09.112Z,99899.16
2022-12-16T14:20:34.763Z,99905.75
2022-12-16T14:25:55.087Z,99912.44
2022-12-16T14:31:41.728Z,99917.09
2022-12-16T14:37:04.237Z,99915.53
2022-12-16T14:42:35.769Z,99932.22
2022-12-16T14:47:58.505Z,99939.44
2022-12-16T14:53:32.275Z,99939.06
2022-12-16T14:58:52.850Z,99949.25
2022-12-16T15:04:13.106Z,99949.63
2022-12-16T15:09:40.281Z,99958.41
2022-12-16T15:15:04.346Z,99964.84
2022-12-16T15:20:28.945Z,99976.44
2022-12-16T15:25:50.700Z,99977.44
2022-12-16T15:31:10.896Z,99979.53
2022-12-16T15:36:42.582Z,99992.75
2022-12-16T15:42:05.891Z,100004.84
2022-12-16T15:47:38.652Z,100010.22
2022-12-16T15:53:00.639Z,100040.56
2022-12-16T15:58:22.242Z,100039.88
2022-12-16T16:03:44.635Z,100033.94
2022-12-16T16:09:09.503Z,100039.25
2022-12-16T16:14:31.041Z,100050.00
2022-12-16T16:19:51.268Z,100060.41
2022-12-16T16:25:11.654Z,100047.72
2022-12-16T16:30:33.281Z,100037.81
2022-12-16T16:35:53.836Z,100034.69
2022-12-16T16:41:14.363Z,100039.63
2022-12-16T16:46:50.429Z,100024.13
2022-12-16T16:52:10.690Z,100024.41
2022-12-16T16:57:30.716Z,100018.84
2022-12-16T17:02:52.497Z,100015.38
2022-12-16T17:08:13.305Z,100019.38
2022-12-16T17:13:33.905Z,100033.19
2022-12-16T17:18:55.862Z,100030.66
2022-12-16T17:24:16.156Z,100038.13
2022-12-16T17:29:39.294Z,100042.81
2022-12-16T17:35:00.988Z,100047.59
2022-12-16T17:40:21.472Z,100054.31
2022-12-16T17:45:41.555Z,100047.09
2022-12-16T17:51:03.039Z,100045.44
2022-12-16T17:56:23.956Z,100047.53
2022-12-16T18:01:44.376Z,100042.44
2022-12-16T18:07:06.037Z,100052.09
2022-12-16T18:12:26.175Z,100061.72
2022-12-16T18:17:57.779Z,100058.25
2022-12-16T18:23:19.525Z,100045.31
2022-12-16T18:28:39.817Z,100056.13
2022-12-16T18:34:00.459Z,100060.50
2022-12-16T18:39:22.526Z,100072.91
2022-12-16T18:44:42.973Z,100081.81
2022-12-16T18:50:03.613Z,100078.81
2022-12-16T18:55:26.258Z,100090.16
2022-12-16T19:00:46.527Z,100093.63
2022-12-16T19:06:11.799Z,100096.19
2022-12-16T19:11:33.417Z,100116.22
2022-12-16T19:16:53.712Z,100122.09
2022-12-16T19:22:14.486Z,100134.34
2022-12-16T19:27:36.365Z,100143.13
2022-12-16T19:32:56.551Z,100151.13
2022-12-16T19:38:17.001Z,100137.22
2022-12-16T19:43:38.920Z,100148.56
2022-12-16T19:48:59.749Z,100153.56
2022-12-16T19:54:20.358Z,100160.81
2022-12-16T19:59:42.366Z,100152.50
2022-12-16T20:05:02.525Z,100166.72
2022-12-16T20:10:23.550Z,100178.97
2022-12-16T20:15:45.218Z,100185.13
2022-12-16T20:21:05.357Z,100199.03
2022-12-16T20:26:25.492Z,100208.09
2022-12-16T20:31:47.348Z,100216.25
2022-12-16T20:37:07.594Z,100238.88
2022-12-16T20:42:27.852Z,100248.22
2022-12-16T20:47:49.347Z,100269.03
2022-12-16T20:53:09.906Z,100282.06
2022-12-16T20:58:35.516Z,100292.13
2022-12-16T21:03:57.540Z,100308.78
2022-12-16T21:09:17.995Z,100301.09
2022-12-16T21:14:38.548Z,100298.31
2022-12-16T21:20:00.181Z,100301.47
2022-12-16T21:25:24.611Z,100300.88
2022-12-16T21:30:45.928Z,100309.50
2022-12-16T21:36:13.585Z,100309.50
2022-12-16T21:41:34.064Z,100328.91
2022-12-16T21:46:55.251Z,100339.50
2022-12-16T21:52:18.092Z,100349.31
2022-12-16T21:57:38.514Z,100356.84
2022-12-16T22:02:58.851Z,100371.88
2022-12-16T22:08:25.592Z,100372.09
2022-12-16T22:13:48.816Z,100377.28
2022-12-16T22:19:12.032Z,100378.88
2022-12-16T22:24:33.398Z,100369.47
2022-12-16T22:30:02.167Z,100373.69
2022-12-16T22:35:22.815Z,100368.63
2022-12-16T22:40:44.470Z,100379.50
2022-12-16T22:46:06.893Z,100384.69
2022-12-16T22:51:29.628Z,100394.09
2022-12-16T22:57:02.563Z,100375.72
2022-12-16T23:02:23.160Z,100380.69
2022-12-16T23:07:43.482Z,100398.84
2022-12-16T23:13:04.828Z,100405.88
2022-12-16T23:18:25.387Z,100409.59
2022-12-16T23:23:57.218Z,100413.06
2022-12-16T23:29:18.911Z,100427.97
2022-12-16T23:34:50.744Z,100425.81
2022-12-16T23:40:11.117Z,100414.59
2022-12-16T23:45:32.957Z,100431.00
2022-12-16T23:50:53.083Z,100425.66
2022-12-16T23:56:18.086Z,100432.91
